TWT weather

Sanga Sanga Airport
Tawi-Tawi Province, Philippines

Public forecast

Using degrees Celsius for public forecast. Weather courtesy of forecast.io.

Closest aviation weather report (METAR) to Sanga Sanga Airport

Closest report is Tawau Airport, 106.0 nm (196.4 km) WSW. Retrieved 2020/07/08 05:00 UTC (3 minutes ago):

WBKW 080500Z VRB03KT 9999 FEW017 31/25 Q1008

Closest aviation forecast (TAF) to Sanga Sanga Airport

Closest forecast is Tawau Airport, 106.0 nm (196.4 km) WSW. Retrieved 2020-07-08 00:00 UTC (5 hours ago):

TAF WBKW 072300Z 0800/0900 15007KT 9999 FEW017